Aérodrome :
LOGIN :

S'inscrire | Disclaimer

   EN    FR    IT 

 










Légende :    VFR   VFR Marginal   IFR   IFR Intensif   IFR Très Intensif
Visi : 
Plafond : 
>= 8 km
>= 3000ft
5 à 8 km
1000 à 3000 ft
1500m à 5 km
500 à 1000 ft
800 à 1500m
200 à 500 ft
< 800m
< 200 ft
Symboles :   Orages  Brouillard  Fortes neiges  Fortes précipitations  Vent > 20 kt
SIGMETs :   Divers  Orages  Givrage  Turbulence  Onde Orograph.  Cendres Volcan.






- Altitude de l'aérodrome : 538 ft
- Code IATA : TNF


LFPN - Toussus Le Noble

DERNIER METAR :
  • 122100Z AUTO 24008KT 9999 FEW010 SCT014 BKN029 07/06 Q0985 BECMG 20015G25KT

METARs EXPIRÉS :
  • 122030Z AUTO 25009KT 9999 FEW010 BKN024 BKN029 07/06 Q0985 BECMG 20015G25KT
  • 122000Z AUTO 22008KT 9999 SCT011 SCT020 OVC027 06/05 Q0985 BECMG 20015G25KT
  • 121930Z AUTO 20008KT 9999 BKN006 BKN015 OVC025 06/05 Q0986 BECMG 20015G25KT BKN020
  • 121900Z AUTO 17011KT 6000 -RA OVC006 06/05 Q0986 BECMG 20015G25KT BKN020
  • 121830Z AUTO 17013KT 5000 -RA BR BKN007/// OVC013/// ///TCU 06/05 Q0987 BECMG 20015G25KT BKN020

TAF AMD TAF LFPN
Valide du 12 à 19h jusqu'au 13 à 03h UTC


121912Z 1219/1303 17015G25KT 9999 -RA BKN012
TEMPO 1219/1220 2500 RA BKN006 SCT020TCU
BECMG 1219/1221 20015G25KT NSW BKN020
TEMPO 1300/1302 22018G32KT 4000 RA BKN020 SCT025CB
ATIS : +33 1 39 56 54 70



MET'MAP, la Météo Aéronautique d'un coup d'oeil ! - Copyright ORBIFLY Décembre 2007 - Disclaimer

ORBIFLY MET'MAP TEAM :

Programmation & Développement : Alexandra Zaïnal
Sur une idée originale de : Baudouin d'Aumeries
Assistance à la programmation : Marc-Olivier Méhu
Soutien technique & logistique : Manuel Goepfert

Contact : metmap@orbifly.com




SOURCES & CREDITS :

   NOAA